Airfield :
LOGIN :

Register | Disclaimer

   EN    FR    IT 

 










Legend :    VFR   Marginal VFR   IFR   Intensive IFR   Very Intensive IFR
Visi :
Ceiling :
>= 8 km
>= 3000ft
5 to 8 km
1000 to 3000 ft
1500m to 5 km
500 to 1000 ft
800 to 1500m
200 to 500 ft
< 800m
< 200 ft
Symbols :   Thunderstorms  Fog  Heavy snow  Heavy precipitations  Wind > 20 kt
SIGMETs :     Misc.  Thunderstorms  Icing  Turbulence  Mountain Waves  Volcanic Ashes







- Airport Elevation : 74 ft
- IATA code : EIN


EHEH - Eindhoven

CURRENT METAR :
  • 201855Z AUTO VRB02KT 3900 DZ SCT005 BKN006 OVC008 02/02 Q1000 YLO VRB03KT 7000 -RADZ SCT007 SCT010 OVC010 TEMPO 2000 DZRA -RASN BKN003 OVC006

EXPIRED METARs :
  • 201839Z AUTO 36003KT 320V020 3200 R21/P3000N DZ OVC006 02/02 Q1000 YLO VRB03KT 7000 -RADZ SCT007 SCT010 OVC010 TEMPO 2000 DZRA -RASN BKN004 OVC006
  • 201838Z AUTO 36003KT 4000 DZ OVC006 02/02 Q1000 YLO VRB03KT 7000 -RADZ SCT007 SCT010 OVC010 TEMPO 2000 DZRA -RASN BKN004 OVC006
  • 201825Z AUTO 01003KT 330V030 3300 R21/P3000N DZ SCT005 OVC006 02/02 Q1000 YLO VRB03KT 7000 -RADZ SCT007 SCT010 OVC010 TEMPO 2000 DZRA -RASN BKN004 OVC006
  • 201805Z AUTO 01003KT 360V060 4700 DZ SCT004 BKN005 OVC007 02/02 Q1000 YLO VRB03KT 7000 -RADZ SCT007 SCT010 OVC010 TEMPO 2000 DZRA -RASN BKN004 OVC006
  • 201755Z AUTO 01003KT 360V120 5000 DZRA SCT003 OVC005 02/02 Q1000 YLO VRB03KT 7000 -RADZ FEW007 SCT010 OVC025 TEMPO 2000 DZRA -RASN BKN005 OVC010
  • 201740Z AUTO VRB01KT 9999 DZ SCT005 BKN006 OVC008 02/02 Q1000 YLO 12005KT 7000 -RADZ SCT010 OVC025 TEMPO BKN005 OVC010
  • 201725Z AUTO VRB01KT 9000 BR OVC007 02/02 Q0999 GRN 12005KT 7000 -RADZ SCT010 OVC025 TEMPO BKN005 OVC010
  • 201702Z AUTO VRB01KT 9999 OVC007 02/02 Q0999 GRN 12005KT 7000 -RADZ SCT010 OVC025 TEMPO BKN005 OVC010
  • 201659Z AUTO VRB01KT 9999 OVC006 02/02 Q0999 YLO 12005KT 7000 -RADZ SCT010 OVC025 TEMPO BKN005 OVC010
  • 201655Z AUTO VRB02KT 9999 SCT005 BKN007 OVC009 02/02 Q0999 YLO 12005KT 7000 -RADZ SCT010 OVC025 TEMPO BKN005 OVC010
  • 201646Z AUTO 10002KT 9999 SCT004 BKN005 BKN007 02/01 Q0999 YLO 12005KT 7000 -RADZ SCT010 OVC025 TEMPO BKN005 OVC010
  • 201631Z AUTO VRB01KT 9999 OVC007 02/01 Q0999 GRN 12005KT 7000 -RADZ SCT010 OVC025 TEMPO BKN005 OVC010
  • 201625Z AUTO VRB01KT 9999 OVC006 02/02 Q0999 YLO 12005KT 7000 -RADZ SCT010 OVC025 TEMPO BKN005 OVC010
  • 201606Z AUTO VRB02KT 9999 BKN006 OVC007 02/01 Q0999 YLO 12005KT 7000 -RADZ SCT010 OVC025 TEMPO BKN005 OVC010

TAF COR TAF EHEH
Valid from the 20 at 18:00 until the 22 at 00:00 UTC


201759Z 2018/2124 VRB02KT 9999 BKN007 OVC015
TEMPO 2018/2024 2000 -DZRA -RASN OVC004
BECMG 2019/2021 33005KT
BECMG 2022/2100 27005KT SCT020
PROB30 2100/2108 4000 BR SCT008
PROB30
TEMPO 2100/2104 4500 SHRAGS SCT018CB BKN025
BECMG 2121/2124 -RA BKN020 OVC050
No reported NOTAMs for that airfield.
1 SIGMET reported for the Amsterdam FIR (EHAA) :
 
Severe turbulence
EHAA SIGMET 1 VALID 201835/202230 EHDB
EHAA AMSTERDAM FIR SEV TURB FCST WI N5412 E00415 - N5231 E00529 - N5156 E00438 - N5255 E00309 - N5412 E00415 FL180/330 MOV SE 30KT NC=



MET'MAP, your aeronautical weather chart ! - Copyright ORBIFLY December 2007 - Disclaimer

ORBIFLY MET'MAP TEAM :

Programming & Development : Alexandra Zaïnal
Concept & Development : Baudouin d'Aumeries
Co-Development & Prog : Marc-Olivier Méhu
Technical & hardware support : Manuel Goepfert

Contact : metmap@orbifly.com




SOURCES & CREDITS :

   NOAA